Time;durP1;ratioP1;P1;durP2;ratioP2;P2;SDS_P1;SDS_P2;PMS_P1;PMS_P2;Temp;Humidity;BMP_temperature;BMP_pressure;BME280_temperature;BME280_humidity;BME280_pressure;Samples;Min_cycle;Max_cycle;Signal;HPM_P1;HPM_P2
2023/03/13 00:05:02;;;;;;;12.55;3.28;;;;;;;8.48;87.06;99199.75;10543697;28;20044;-72
2023/03/13 00:10:05;;;;;;;12.18;3.63;;;;;;;8.39;87.48;99198.31;10526272;28;20115;-72
2023/03/13 00:15:07;;;;;;;15.82;3.58;;;;;;;8.32;87.48;99197.66;10542392;28;20055;-69
2023/03/13 00:20:10;;;;;;;17.27;5.03;;;;;;;8.38;87.40;99203.63;10525626;28;20462;-69
2023/03/13 00:25:12;;;;;;;10.43;4.18;;;;;;;8.53;85.94;99196.03;10540438;28;20044;-70
2023/03/13 00:30:13;;;;;;;9.50;3.55;;;;;;;8.55;85.50;99198.63;10540185;28;20037;-68
2023/03/13 00:35:15;;;;;;;13.45;4.07;;;;;;;8.48;85.64;99195.34;10540576;28;20040;-69
2023/03/13 00:40:19;;;;;;;14.00;3.25;;;;;;;8.57;85.25;99204.66;10522854;28;20051;-69
2023/03/13 00:45:20;;;;;;;10.48;2.97;;;;;;;8.64;84.28;99207.91;10541118;28;20090;-69
2023/03/13 00:50:22;;;;;;;18.27;3.50;;;;;;;8.62;83.81;99197.47;10523318;28;20135;-69
2023/03/13 00:55:24;;;;;;;11.13;3.30;;;;;;;8.54;84.41;99196.88;10541331;28;20032;-68
2023/03/13 01:00:25;;;;;;;12.45;3.35;;;;;;;8.58;83.65;99199.34;10522466;28;20475;-68
2023/03/13 01:05:27;;;;;;;9.43;3.63;;;;;;;8.61;83.10;99192.28;10522382;28;20047;-69
2023/03/13 01:10:29;;;;;;;14.35;3.80;;;;;;;8.72;81.87;99187.50;10522601;28;20509;-70
2023/03/13 01:15:33;;;;;;;11.65;2.97;;;;;;;8.91;80.19;99177.19;10540534;28;20066;-70
2023/03/13 01:20:37;;;;;;;10.27;2.80;;;;;;;8.81;80.55;99168.84;10522406;28;20055;-70
2023/03/13 01:25:39;;;;;;;13.93;3.20;;;;;;;8.77;80.31;99175.94;10521566;28;20044;-69
2023/03/13 01:30:41;;;;;;;13.98;3.47;;;;;;;8.86;79.09;99163.41;10522114;28;20076;-69
2023/03/13 01:35:44;;;;;;;10.10;3.20;;;;;;;8.84;78.90;99158.22;10540731;28;20063;-69
2023/03/13 01:40:48;;;;;;;11.32;3.25;;;;;;;8.82;78.28;99152.19;10513006;28;20098;-69
2023/03/13 01:45:53;;;;;;;11.68;3.25;;;;;;;8.70;78.99;99153.50;10529833;28;20423;-69
2023/03/13 01:51:00;;;;;;;12.88;2.97;;;;;;;8.73;78.68;99150.78;10513220;28;20565;-70
2023/03/13 01:56:07;;;;;;;12.57;3.45;;;;;;;8.71;78.61;99142.09;10512894;28;20040;-70
2023/03/13 02:01:09;;;;;;;11.40;4.28;;;;;;;8.66;78.65;99140.56;10528956;28;20051;-70
2023/03/13 02:06:11;;;;;;;13.32;3.85;;;;;;;8.87;77.72;99138.91;10546951;28;20121;-69
2023/03/13 02:11:31;;;;;;;9.23;2.72;;;;;;;8.67;78.92;99134.41;10545615;28;20040;-70
2023/03/13 02:16:34;;;;;;;11.30;2.90;;;;;;;8.66;79.63;99117.00;10545814;28;20032;-70
2023/03/13 02:21:48;;;;;;;14.23;3.83;;;;;;;8.50;80.75;99104.50;10527352;28;20398;-69
2023/03/13 02:26:49;;;;;;;10.15;3.30;;;;;;;8.41;81.37;99102.25;10527055;28;20072;-70
2023/03/13 02:31:52;;;;;;;9.90;2.80;;;;;;;8.31;82.11;99103.44;10526579;28;20070;-70
2023/03/13 02:36:55;;;;;;;21.35;3.58;;;;;;;8.33;81.71;99097.25;10544557;28;20048;-70
2023/03/13 02:41:58;;;;;;;16.48;4.35;;;;;;;8.28;82.47;99103.56;10526619;28;20126;-70
2023/03/13 02:47:01;;;;;;;12.75;3.60;;;;;;;8.16;83.24;99102.25;10526282;28;20044;-69
2023/03/13 02:52:19;;;;;;;9.68;2.97;;;;;;;8.33;82.17;99099.88;10524390;28;20075;-69
2023/03/13 02:57:21;;;;;;;14.73;3.42;;;;;;;8.16;83.31;99102.25;10525687;28;20459;-72
2023/03/13 03:02:23;;;;;;;13.80;3.67;;;;;;;8.05;84.46;99097.38;10544187;28;20044;-72
2023/03/13 03:07:26;;;;;;;16.00;3.33;;;;;;;8.06;84.48;99106.97;10525628;28;20501;-71
2023/03/13 03:12:28;;;;;;;11.77;3.78;;;;;;;8.21;83.58;99100.31;10543758;28;20047;-72
2023/03/13 03:17:30;;;;;;;10.75;2.85;;;;;;;8.26;83.11;99101.00;10525238;28;20032;-73
2023/03/13 03:22:33;;;;;;;12.68;3.33;;;;;;;8.14;83.67;99082.25;10525151;28;20059;-73
2023/03/13 03:27:39;;;;;;;13.07;3.35;;;;;;;8.06;84.06;99075.56;10557028;22;20050;-70
2023/03/13 03:32:42;;;;;;;;;;;;;;;7.83;85.61;99065.06;10556679;28;20127;-70
2023/03/13 03:37:44;;;;;;;9.45;2.60;;;;;;;8.02;84.13;99054.81;10524096;28;19955;-70
2023/03/13 03:42:46;;;;;;;22.02;3.65;;;;;;;8.02;84.71;99045.19;10524006;28;20044;-71
2023/03/13 03:47:48;;;;;;;14.35;3.90;;;;;;;7.96;85.18;99039.31;10523742;28;20043;-71
2023/03/13 03:52:50;;;;;;;8.93;3.03;;;;;;;7.73;86.63;99027.91;10523746;28;20047;-70
2023/03/13 03:57:52;;;;;;;13.25;2.95;;;;;;;7.65;87.83;99018.66;10523365;28;20040;-70
2023/03/13 04:03:12;;;;;;;12.10;3.50;;;;;;;7.68;87.49;99003.69;10522921;28;20060;-70
2023/03/13 04:08:14;;;;;;;12.82;3.17;;;;;;;7.54;88.31;98991.13;10522461;28;20067;-71
2023/03/13 04:13:16;;;;;;;15.43;3.20;;;;;;;7.75;87.34;98981.66;10540983;28;20519;-70
2023/03/13 04:18:19;;;;;;;8.07;2.72;;;;;;;7.80;87.11;98981.47;10522721;28;20047;-71
2023/03/13 04:23:21;;;;;;;16.15;3.53;;;;;;;7.48;88.96;98974.78;10541143;28;20066;-71
2023/03/13 04:28:25;;;;;;;10.30;3.40;;;;;;;7.42;89.67;98970.63;10522083;28;20067;-70
2023/03/13 04:33:28;;;;;;;16.50;3.40;;;;;;;7.44;90.08;98963.63;10522333;28;20489;-70
2023/03/13 04:38:48;;;;;;;13.93;2.97;;;;;;;7.62;89.64;98956.00;10540941;28;20052;-70
2023/03/13 04:44:08;;;;;;;19.65;3.63;;;;;;;7.67;89.51;98930.53;10540694;28;20040;-70
2023/03/13 04:49:10;;;;;;;11.80;3.35;;;;;;;7.80;88.85;98929.16;10522615;28;20040;-70
2023/03/13 04:54:12;;;;;;;16.88;3.03;;;;;;;7.95;87.84;98918.09;10541547;28;20044;-71
2023/03/13 04:59:37;;;;;;;19.92;3.53;;;;;;;8.11;87.11;98912.25;10540449;28;20048;-70
2023/03/13 05:05:02;;;;;;;11.57;2.58;;;;;;;8.41;84.91;98897.09;10493199;28;20466;-70
2023/03/13 05:10:22;;;;;;;8.98;2.85;;;;;;;8.52;83.65;98889.66;10539168;28;20456;-70
2023/03/13 05:15:43;;;;;;;12.88;2.88;;;;;;;8.66;82.63;98875.97;10547446;28;20081;-71
2023/03/13 05:20:57;;;;;;;14.50;3.17;;;;;;;8.65;82.55;98866.44;10529503;28;20097;-71
2023/03/13 05:26:14;;;;;;;13.60;3.10;;;;;;;8.72;82.25;98849.50;10531052;28;20159;-72
2023/03/13 05:31:37;;;;;;;9.63;3.22;;;;;;;8.80;81.57;98839.56;10528574;28;20058;-70
2023/03/13 05:36:52;;;;;;;8.43;2.85;;;;;;;8.74;82.44;98830.19;10530454;28;20131;-71
2023/03/13 05:42:12;;;;;;;15.25;2.78;;;;;;;8.74;82.25;98824.97;10548104;28;20083;-71
2023/03/13 05:47:27;;;;;;;13.68;3.78;;;;;;;8.63;83.49;98834.19;10528922;28;20044;-71
2023/03/13 05:53:01;;;;;;;15.82;2.83;;;;;;;8.90;81.96;98819.03;10524188;28;20043;-71
2023/03/13 05:58:12;;;;;;;11.15;3.22;;;;;;;8.68;83.24;98808.69;10528086;28;20075;-71
2023/03/13 06:03:33;;;;;;;9.38;2.13;;;;;;;8.91;81.77;98805.03;10546609;28;20047;-71
2023/03/13 06:08:35;;;;;;;9.93;3.05;;;;;;;8.89;81.96;98793.75;10546930;28;20043;-71
2023/03/13 06:13:37;;;;;;;9.60;2.38;;;;;;;9.01;80.82;98788.81;10545607;28;20050;-71
2023/03/13 06:19:01;;;;;;;8.80;2.92;;;;;;;9.02;80.99;98808.84;10536173;28;20498;-71
2023/03/13 06:24:03;;;;;;;15.55;3.15;;;;;;;9.10;80.62;98785.78;10545136;28;20072;-70
2023/03/13 06:29:05;;;;;;;9.55;2.78;;;;;;;9.13;80.80;98769.06;10546200;28;20044;-71
2023/03/13 06:34:10;;;;;;;18.42;2.95;;;;;;;9.34;78.77;98754.97;10544662;28;20040;-71
2023/03/13 06:39:12;;;;;;;8.07;2.58;;;;;;;9.59;77.53;98752.00;10546092;28;20047;-71
2023/03/13 06:44:14;;;;;;;14.18;3.00;;;;;;;9.47;78.79;98728.97;10547050;28;20040;-71
2023/03/13 06:49:15;;;;;;;12.60;2.88;;;;;;;9.68;76.73;98732.34;10511587;28;20051;-70
2023/03/13 06:54:17;;;;;;;8.70;2.38;;;;;;;9.84;75.34;98725.41;10545870;28;20036;-71
2023/03/13 06:59:19;;;;;;;9.93;2.38;;;;;;;9.86;75.08;98726.19;10544717;28;20040;-70
2023/03/13 07:04:20;;;;;;;5.72;2.08;;;;;;;9.93;74.29;98718.03;10544515;28;20047;-70
2023/03/13 07:09:22;;;;;;;8.38;2.83;;;;;;;9.89;75.06;98725.19;10545260;28;20044;-70
2023/03/13 07:14:24;;;;;;;8.88;2.58;;;;;;;9.97;75.31;98717.78;10545569;28;20111;-70
2023/03/13 07:19:26;;;;;;;8.93;2.80;;;;;;;9.97;76.02;98699.41;10544184;28;20044;-70
2023/03/13 07:24:28;;;;;;;7.35;2.22;;;;;;;10.02;77.17;98701.81;10544271;28;20067;-71
2023/03/13 07:29:29;;;;;;;8.20;1.92;;;;;;;9.97;82.14;98682.81;10543705;28;20044;-71
2023/03/13 07:34:31;;;;;;;8.60;2.28;;;;;;;9.78;86.36;98672.38;10543071;28;20434;-69
2023/03/13 07:39:33;;;;;;;7.60;1.88;;;;;;;9.60;91.24;98668.91;10543789;28;20221;-69
2023/03/13 07:44:34;;;;;;;8.40;2.92;;;;;;;9.45;95.20;98654.78;10542710;28;20678;-70
2023/03/13 07:49:42;;;;;;;5.25;2.00;;;;;;;9.42;98.59;98643.56;10542877;28;20048;-71
2023/03/13 07:54:45;;;;;;;9.38;2.10;;;;;;;9.42;100.00;98633.09;10542080;28;20044;-70
2023/03/13 07:59:47;;;;;;;10.57;1.90;;;;;;;9.45;100.00;98619.84;10523979;28;20052;-70
2023/03/13 08:04:52;;;;;;;5.78;1.80;;;;;;;9.63;100.00;98628.56;10542539;28;20043;-70
2023/03/13 08:09:54;;;;;;;7.55;2.33;;;;;;;9.52;100.00;98627.31;10543906;28;20076;-71
2023/03/13 08:14:56;;;;;;;6.97;1.80;;;;;;;9.48;100.00;98643.28;10542364;28;20482;-71
2023/03/13 08:19:58;;;;;;;8.32;2.25;;;;;;;9.52;100.00;98645.69;10541914;28;20068;-71
2023/03/13 08:24:59;;;;;;;6.30;1.95;;;;;;;9.68;99.70;98652.78;10541837;28;20040;-71
2023/03/13 08:30:01;;;;;;;6.07;2.38;;;;;;;9.69;98.54;98657.09;10541012;28;20058;-71
2023/03/13 08:35:04;;;;;;;4.20;1.88;;;;;;;9.66;99.17;98663.38;10541288;28;20040;-70
2023/03/13 08:40:10;;;;;;;4.80;1.70;;;;;;;9.86;97.47;98676.31;10543300;28;20044;-70
2023/03/13 08:45:12;;;;;;;3.83;1.60;;;;;;;9.94;97.27;98670.69;10542648;28;20466;-70
2023/03/13 08:50:16;;;;;;;8.57;1.77;;;;;;;10.06;96.38;98662.19;10530452;28;20052;-70
2023/03/13 08:55:17;;;;;;;4.85;1.90;;;;;;;10.18;95.62;98657.22;10549719;28;20063;-71
2023/03/13 09:00:19;;;;;;;5.20;1.55;;;;;;;10.27;96.68;98633.13;10531968;28;20044;-71
2023/03/13 09:05:21;;;;;;;4.65;1.58;;;;;;;10.45;93.65;98611.16;10549555;28;20481;-71
2023/03/13 09:10:23;;;;;;;4.60;1.40;;;;;;;10.38;95.93;98606.31;10549740;28;20032;-71
2023/03/13 09:15:24;;;;;;;3.60;1.30;;;;;;;10.55;94.10;98606.25;10534687;28;20086;-71
2023/03/13 09:20:26;;;;;;;3.60;1.13;;;;;;;10.49;93.58;98601.31;10581016;28;20050;-71
2023/03/13 09:25:28;;;;;;;2.63;1.08;;;;;;;10.75;91.27;98602.50;10592552;28;20054;-71
2023/03/13 09:30:30;;;;;;;1.90;0.77;;;;;;;10.81;91.58;98629.31;10598666;22;20050;-72
2023/03/13 09:35:31;;;;;;;3.65;1.17;;;;;;;10.83;91.79;98618.72;10589646;28;20385;-72
2023/03/13 09:40:43;;;;;;;2.08;0.98;;;;;;;10.66;96.88;98629.31;10589932;28;20050;-73
2023/03/13 09:46:10;;;;;;;2.97;1.20;;;;;;;10.61;100.00;98633.03;10589480;28;20122;-71
2023/03/13 09:51:20;;;;;;;3.45;1.30;;;;;;;10.74;100.00;98606.09;10588953;28;20043;-72
2023/03/13 09:56:25;;;;;;;5.60;0.70;;;;;;;10.99;100.00;98605.56;10588799;28;20042;-72
2023/03/13 10:01:33;;;;;;;1.40;0.70;;;;;;;11.11;99.73;98599.59;10589095;28;20039;-72
2023/03/13 10:06:42;;;;;;;2.03;0.80;;;;;;;11.39;96.63;98572.56;10588713;28;20054;-71
2023/03/13 10:11:52;;;;;;;1.23;0.50;;;;;;;11.50;94.28;98569.31;10588452;28;20497;-72
2023/03/13 10:17:04;;;;;;;2.00;0.68;;;;;;;11.52;94.75;98578.81;10588197;28;20046;-73
2023/03/13 10:22:15;;;;;;;1.45;0.75;;;;;;;11.70;93.53;98561.09;10588057;28;20035;-73
2023/03/13 10:27:17;;;;;;;2.10;0.80;;;;;;;11.68;94.38;98570.00;10588542;28;20076;-73
2023/03/13 10:32:19;;;;;;;1.67;0.85;;;;;;;11.99;90.99;98561.97;10587632;28;20047;-73
2023/03/13 10:37:28;;;;;;;1.20;0.50;;;;;;;11.99;91.16;98561.97;10587313;28;20043;-72
2023/03/13 10:42:38;;;;;;;1.50;0.70;;;;;;;12.10;89.75;98570.09;10568335;28;20051;-72
2023/03/13 10:47:40;;;;;;;0.98;0.70;;;;;;;12.33;89.63;98581.00;10586647;28;20054;-71
2023/03/13 10:52:45;;;;;;;0.98;0.60;;;;;;;12.48;87.82;98564.22;10585745;28;20043;-72
2023/03/13 10:58:02;;;;;;;1.10;0.60;;;;;;;12.59;87.39;98571.44;10586340;28;20050;-72
2023/03/13 11:03:30;;;;;;;2.85;0.70;;;;;;;12.97;85.22;98582.19;10586198;28;20528;-73
2023/03/13 11:08:36;;;;;;;1.70;0.63;;;;;;;13.07;85.72;98582.44;10585552;28;20546;-72
2023/03/13 11:13:42;;;;;;;5.78;0.60;;;;;;;13.18;86.54;98589.66;10585043;28;20096;-72
2023/03/13 11:19:00;;;;;;;3.40;0.45;;;;;;;13.49;84.82;98594.63;10567005;28;20513;-72
2023/03/13 11:24:14;;;;;;;0.90;0.60;;;;;;;13.53;85.69;98606.66;10585918;28;20040;-73
2023/03/13 11:29:51;;;;;;;1.23;0.60;;;;;;;13.35;83.61;98610.53;10568683;28;20378;-72
2023/03/13 11:34:58;;;;;;;0.85;0.57;;;;;;;13.16;84.97;98597.66;10505794;28;20052;-73
2023/03/13 11:40:15;;;;;;;0.52;0.40;;;;;;;13.08;85.12;98599.97;10586974;27;20039;-72
2023/03/13 11:45:27;;;;;;;1.27;0.50;;;;;;;13.01;85.33;98598.66;10576809;27;20049;-73
2023/03/13 11:50:51;;;;;;;0.80;0.40;;;;;;;13.06;84.13;98597.44;10627618;27;20050;-73
2023/03/13 11:56:16;;;;;;;1.98;0.60;;;;;;;13.25;82.25;98578.63;10600896;27;20151;-72
2023/03/13 12:01:23;;;;;;;0.63;0.60;;;;;;;13.13;82.51;98574.13;10584899;28;20047;-73
2023/03/13 12:06:24;;;;;;;1.95;0.93;;;;;;;12.96;84.84;98572.56;10583831;28;20031;-72
2023/03/13 12:11:43;;;;;;;1.08;0.55;;;;;;;13.08;83.44;98557.75;10587108;27;20120;-72
2023/03/13 12:16:53;;;;;;;2.10;0.70;;;;;;;13.34;83.11;98537.59;10623158;27;20126;-72
2023/03/13 12:21:57;;;;;;;0.60;0.35;;;;;;;13.37;83.23;98527.69;10596166;27;20069;-73
2023/03/13 12:27:07;;;;;;;1.02;0.60;;;;;;;13.77;80.58;98482.72;10585046;28;20486;-73
2023/03/13 12:32:18;;;;;;;1.75;0.50;;;;;;;13.95;82.97;98485.88;10626012;27;20162;-72
2023/03/13 12:37:45;;;;;;;1.10;0.40;;;;;;;14.19;77.91;98477.16;10625792;27;20127;-72
2023/03/13 12:43:04;;;;;;;1.02;0.50;;;;;;;14.34;76.73;98455.78;10626133;27;20047;-72
2023/03/13 12:48:28;;;;;;;0.68;0.38;;;;;;;14.21;76.14;98440.88;10572503;28;20052;-72
2023/03/13 12:54:02;;;;;;;2.22;0.55;;;;;;;14.31;75.84;98434.00;10583500;28;20039;-72
2023/03/13 12:59:16;;;;;;;0.60;0.50;;;;;;;14.48;73.40;98440.69;10583482;28;20039;-72
2023/03/13 13:04:22;;;;;;;0.50;0.40;;;;;;;14.61;74.01;98426.50;10582867;28;20483;-72
2023/03/13 13:09:27;;;;;;;1.40;0.40;;;;;;;14.70;72.41;98440.84;10583381;28;20100;-71
2023/03/13 13:14:47;;;;;;;0.88;0.60;;;;;;;14.92;71.75;98449.81;10582119;28;20046;-71
2023/03/13 13:19:49;;;;;;;0.95;0.40;;;;;;;15.43;69.47;98446.81;10581308;28;20047;-69
2023/03/13 13:25:01;;;;;;;0.65;0.40;;;;;;;15.82;66.74;98430.50;10573966;28;20388;-72
2023/03/13 13:30:26;;;;;;;1.88;0.55;;;;;;;16.07;67.11;98425.91;10624827;28;20043;-72
2023/03/13 13:35:28;;;;;;;1.80;0.50;;;;;;;16.37;66.02;98420.78;10616663;27;20077;-71
2023/03/13 13:40:30;;;;;;;0.95;0.30;;;;;;;16.37;64.34;98383.66;10613913;27;20039;-72
2023/03/13 13:45:37;;;;;;;3.25;0.50;;;;;;;16.02;65.56;98407.72;10613850;27;20047;-73
2023/03/13 13:51:09;;;;;;;3.50;0.60;;;;;;;16.00;64.77;98427.38;10613259;27;20134;-71
2023/03/13 13:56:41;;;;;;;0.95;0.50;;;;;;;15.79;66.30;98428.09;10613992;27;20039;-72
2023/03/13 14:01:44;;;;;;;1.10;0.40;;;;;;;15.63;66.71;98452.28;10613530;27;20423;-71
2023/03/13 14:06:50;;;;;;;1.77;0.60;;;;;;;15.60;69.28;98455.16;10632242;27;20031;-73
2023/03/13 14:11:52;;;;;;;0.93;0.47;;;;;;;15.77;66.63;98451.22;10613105;27;20085;-72
2023/03/13 14:16:56;;;;;;;1.25;0.60;;;;;;;15.89;66.59;98441.47;10612657;27;20058;-72
2023/03/13 14:22:09;;;;;;;1.42;0.50;;;;;;;15.98;65.31;98442.53;10612558;27;20049;-73
2023/03/13 14:27:18;;;;;;;1.58;0.55;;;;;;;15.87;65.49;98423.03;10630402;27;20039;-72
2023/03/13 14:32:25;;;;;;;2.15;0.60;;;;;;;15.85;66.39;98419.69;10595163;27;20043;-73
2023/03/13 14:37:51;;;;;;;1.33;0.60;;;;;;;15.71;66.10;98419.06;10630976;27;20420;-72
2023/03/13 14:43:00;;;;;;;1.23;0.52;;;;;;;15.81;65.84;98418.25;10611788;27;20043;-73
2023/03/13 14:48:18;;;;;;;0.95;0.50;;;;;;;15.73;67.04;98406.56;10630281;27;20396;-72
2023/03/13 14:53:21;;;;;;;0.93;0.50;;;;;;;15.80;66.36;98415.69;10628089;27;20043;-70
2023/03/13 14:58:29;;;;;;;2.17;0.60;;;;;;;15.89;65.03;98410.53;10626638;27;20038;-72
2023/03/13 15:03:32;;;;;;;0.85;0.57;;;;;;;15.73;67.03;98396.81;10628424;27;20035;-71
2023/03/13 15:09:09;;;;;;;1.08;0.60;;;;;;;15.81;65.99;98385.59;10629167;27;20042;-73
2023/03/13 15:14:33;;;;;;;1.65;0.65;;;;;;;15.81;65.85;98388.25;10622177;27;20496;-72
2023/03/13 15:19:35;;;;;;;1.63;0.50;;;;;;;15.74;66.78;98384.41;10627945;27;20035;-73
2023/03/13 15:24:36;;;;;;;0.80;0.50;;;;;;;15.58;66.07;98366.19;10627674;27;20035;-73
2023/03/13 15:29:38;;;;;;;1.25;0.80;;;;;;;15.45;67.65;98360.16;10627762;22;20042;-72
2023/03/13 15:34:40;;;;;;;1.05;0.70;;;;;;;15.55;66.24;98361.13;10482035;28;20056;-72
2023/03/13 15:39:41;;;;;;;1.05;0.60;;;;;;;15.58;66.14;98368.81;10501028;28;20037;-72
2023/03/13 15:44:43;;;;;;;0.57;0.55;;;;;;;15.35;66.88;98352.09;10500369;28;20132;-73
2023/03/13 15:49:45;;;;;;;0.95;0.60;;;;;;;15.53;65.37;98328.63;10499963;28;20091;-71
2023/03/13 15:54:48;;;;;;;0.90;0.70;;;;;;;15.47;66.22;98326.47;10484135;28;20505;-73
2023/03/13 15:59:51;;;;;;;1.73;1.00;;;;;;;15.36;67.67;98309.63;10499244;28;20036;-72
2023/03/13 16:04:54;;;;;;;1.17;0.80;;;;;;;15.44;67.00;98314.31;10499157;28;20049;-72
2023/03/13 16:09:56;;;;;;;2.25;0.93;;;;;;;15.57;66.24;98304.44;10493509;28;20059;-72
2023/03/13 16:14:58;;;;;;;1.48;0.85;;;;;;;15.38;67.67;98301.56;10515800;28;20045;-73
2023/03/13 16:19:59;;;;;;;0.50;0.50;;;;;;;15.44;66.79;98282.53;10499418;28;20098;-73
2023/03/13 16:25:01;;;;;;;0.60;0.60;;;;;;;15.29;67.18;98278.47;10517343;28;20044;-72
2023/03/13 16:30:10;;;;;;;1.77;0.63;;;;;;;15.04;69.00;98269.78;10500227;28;20398;-72
2023/03/13 16:35:13;;;;;;;2.67;1.90;;;;;;;14.92;70.00;98248.75;10482582;28;20456;-73
2023/03/13 16:40:20;;;;;;;1.40;0.90;;;;;;;14.61;71.18;98248.50;10482066;28;20159;-73
2023/03/13 16:45:23;;;;;;;2.40;0.93;;;;;;;14.73;70.77;98239.59;10465596;28;20053;-73
2023/03/13 16:50:30;;;;;;;0.70;0.55;;;;;;;14.56;71.33;98222.38;10504240;28;20041;-72
2023/03/13 16:55:35;;;;;;;1.95;0.85;;;;;;;14.30;72.25;98224.34;10501057;28;20506;-72
2023/03/13 17:00:37;;;;;;;1.00;0.90;;;;;;;14.28;72.22;98212.19;10499082;28;20040;-72
2023/03/13 17:05:39;;;;;;;1.30;0.80;;;;;;;14.49;71.23;98207.13;10481214;28;20055;-72
2023/03/13 17:10:41;;;;;;;2.83;2.13;;;;;;;14.14;73.21;98206.16;10485019;28;20048;-72
2023/03/13 17:15:42;;;;;;;4.72;4.22;;;;;;;13.92;74.60;98208.72;10487845;28;20055;-72
2023/03/13 17:20:45;;;;;;;2.50;1.88;;;;;;;13.66;76.41;98200.09;10505571;28;20055;-73
2023/03/13 17:25:47;;;;;;;2.63;1.42;;;;;;;13.76;75.69;98202.88;10507777;28;20385;-72
2023/03/13 17:30:49;;;;;;;2.30;1.30;;;;;;;13.56;76.48;98205.22;10506034;28;20489;-71
2023/03/13 17:35:50;;;;;;;1.92;1.33;;;;;;;13.75;74.98;98203.84;10487055;28;20408;-71
2023/03/13 17:40:53;;;;;;;6.95;6.35;;;;;;;13.75;74.12;98199.41;10506191;28;20569;-71
2023/03/13 17:45:54;;;;;;;1.90;1.17;;;;;;;13.89;73.37;98195.75;10506008;28;20066;-71
2023/03/13 17:50:57;;;;;;;1.65;0.93;;;;;;;14.00;72.47;98193.16;10504638;28;20052;-71
2023/03/13 17:55:59;;;;;;;1.50;1.00;;;;;;;13.80;73.34;98186.69;10504906;28;20043;-72
2023/03/13 18:01:00;;;;;;;2.03;1.08;;;;;;;13.51;74.61;98182.75;10504717;28;20094;-71
2023/03/13 18:06:02;;;;;;;2.85;0.93;;;;;;;13.53;74.66;98179.03;10469557;28;20048;-71
2023/03/13 18:11:04;;;;;;;2.30;1.10;;;;;;;13.86;72.41;98169.59;10487506;28;20063;-72
2023/03/13 18:16:16;;;;;;;1.08;0.80;;;;;;;13.92;72.16;98163.81;10504137;28;20131;-73
2023/03/13 18:21:20;;;;;;;2.97;1.30;;;;;;;13.97;71.25;98151.09;10502317;28;20037;-72
2023/03/13 18:26:32;;;;;;;1.75;1.10;;;;;;;13.66;72.81;98159.66;10484931;28;20075;-72
2023/03/13 18:31:35;;;;;;;1.73;1.23;;;;;;;13.57;73.10;98147.97;10504136;28;20049;-72
2023/03/13 18:36:37;;;;;;;2.80;1.05;;;;;;;13.58;73.33;98136.44;10484764;28;20044;-72
2023/03/13 18:41:39;;;;;;;2.38;1.52;;;;;;;13.62;73.76;98136.09;10503394;28;20048;-71
2023/03/13 18:46:42;;;;;;;1.90;1.10;;;;;;;13.52;74.97;98135.13;10502959;28;20120;-73
2023/03/13 18:51:48;;;;;;;1.80;1.33;;;;;;;13.70;73.71;98132.06;10505858;28;20123;-72
2023/03/13 18:56:49;;;;;;;2.47;1.20;;;;;;;13.76;73.36;98124.50;10504050;28;20068;-73
2023/03/13 19:01:53;;;;;;;2.10;1.30;;;;;;;13.81;73.01;98116.25;10496013;28;20120;-73
2023/03/13 19:06:58;;;;;;;2.73;1.17;;;;;;;13.76;73.13;98126.31;10507050;28;20097;-73
2023/03/13 19:12:00;;;;;;;2.22;1.17;;;;;;;13.67;74.18;98127.00;10504112;28;20286;-72
2023/03/13 19:17:05;;;;;;;2.90;1.35;;;;;;;13.81;73.35;98135.59;10503958;28;20036;-72
2023/03/13 19:22:12;;;;;;;1.77;1.27;;;;;;;13.77;73.75;98160.53;10483937;28;20090;-72
2023/03/13 19:27:15;;;;;;;3.28;1.48;;;;;;;13.72;76.32;98212.00;10502364;28;20044;-72
2023/03/13 19:32:17;;;;;;;2.90;1.80;;;;;;;13.27;85.60;98373.53;10499604;28;20044;-72
2023/03/13 19:37:19;;;;;;;3.13;1.65;;;;;;;12.70;98.58;98299.22;10501898;28;20044;-72
2023/03/13 19:42:21;;;;;;;3.75;1.00;;;;;;;12.58;97.87;98291.22;10482230;28;20047;-72
2023/03/13 19:47:23;;;;;;;2.15;1.23;;;;;;;12.36;99.79;98275.16;10501803;28;20465;-72
2023/03/13 19:52:24;;;;;;;2.28;1.20;;;;;;;12.14;100.00;98246.78;10499592;28;20044;-72
2023/03/13 19:57:26;;;;;;;2.33;1.30;;;;;;;11.97;100.00;98228.59;10481750;28;20040;-72
2023/03/13 20:02:28;;;;;;;2.15;1.50;;;;;;;11.74;100.00;98211.66;10500378;28;20032;-73
2023/03/13 20:07:31;;;;;;;2.50;1.58;;;;;;;11.76;100.00;98197.44;10500086;28;20043;-72
2023/03/13 20:12:38;;;;;;;1.90;1.30;;;;;;;11.66;100.00;98188.47;10499869;28;20074;-72
2023/03/13 20:17:39;;;;;;;2.17;1.23;;;;;;;11.53;100.00;98188.44;10500221;28;20111;-72
2023/03/13 20:22:41;;;;;;;1.63;1.05;;;;;;;11.33;100.00;98184.47;10500532;28;20051;-72
2023/03/13 20:27:43;;;;;;;1.25;0.80;;;;;;;11.25;100.00;98173.59;10501123;28;20048;-72
2023/03/13 20:32:45;;;;;;;2.25;0.80;;;;;;;11.13;100.00;98139.34;10498263;28;20573;-73
2023/03/13 20:38:00;;;;;;;1.23;0.95;;;;;;;10.94;100.00;98108.13;10483514;28;20072;-72
2023/03/13 20:43:02;;;;;;;1.55;1.00;;;;;;;10.99;100.00;98077.97;10499700;28;20051;-72
2023/03/13 20:48:04;;;;;;;0.75;0.63;;;;;;;10.89;100.00;98065.50;10480307;28;20127;-72
2023/03/13 20:53:06;;;;;;;0.95;0.80;;;;;;;10.79;100.00;98073.13;10509845;28;20115;-72
2023/03/13 20:58:08;;;;;;;1.85;0.85;;;;;;;10.76;100.00;98066.31;10505629;28;20051;-72
2023/03/13 21:03:10;;;;;;;0.80;0.70;;;;;;;10.82;100.00;98059.81;10506890;28;20049;-72
2023/03/13 21:08:12;;;;;;;1.77;0.90;;;;;;;10.81;100.00;98069.47;10501104;28;20048;-72
2023/03/13 21:13:14;;;;;;;1.70;0.93;;;;;;;10.79;100.00;98065.25;10497648;28;20044;-72
2023/03/13 21:18:15;;;;;;;1.40;0.80;;;;;;;10.86;100.00;98056.88;10497414;28;20040;-72
2023/03/13 21:23:24;;;;;;;1.45;0.70;;;;;;;10.94;100.00;98063.44;10499349;28;20045;-72
2023/03/13 21:28:27;;;;;;;0.75;0.60;;;;;;;10.94;100.00;98059.03;10482631;28;20045;-72
2023/03/13 21:33:28;;;;;;;2.72;1.10;;;;;;;10.99;100.00;98038.53;10542592;22;20501;-70
2023/03/13 21:38:30;;;;;;;1.50;1.08;;;;;;;10.80;100.00;98048.53;10539450;28;20044;-70
2023/03/13 21:43:32;;;;;;;1.45;0.82;;;;;;;10.77;100.00;98035.63;10539517;28;20098;-70
2023/03/13 21:48:34;;;;;;;0.70;0.50;;;;;;;10.81;100.00;98023.97;10539300;28;20036;-70
2023/03/13 21:53:36;;;;;;;1.13;0.70;;;;;;;10.83;100.00;98033.41;10539131;28;20413;-70
2023/03/13 21:58:38;;;;;;;1.35;0.70;;;;;;;10.75;100.00;98037.47;10546411;28;20040;-70
2023/03/13 22:03:41;;;;;;;1.52;0.88;;;;;;;10.70;100.00;98047.44;10546067;28;20409;-70
2023/03/13 22:08:42;;;;;;;1.08;0.90;;;;;;;10.84;100.00;98066.63;10546343;28;20039;-70
2023/03/13 22:13:44;;;;;;;0.80;0.63;;;;;;;10.86;100.00;98063.94;10545799;28;20454;-70
2023/03/13 22:18:46;;;;;;;0.73;0.65;;;;;;;10.81;100.00;98077.38;10546748;28;20120;-69
2023/03/13 22:23:48;;;;;;;1.05;0.73;;;;;;;10.65;100.00;98083.69;10527990;28;20044;-70
2023/03/13 22:28:50;;;;;;;3.15;1.75;;;;;;;10.55;100.00;98093.94;10546349;28;20040;-70
2023/03/13 22:33:51;;;;;;;1.42;0.90;;;;;;;10.64;100.00;98106.50;10526792;28;20516;-70
2023/03/13 22:38:53;;;;;;;1.05;0.90;;;;;;;10.56;100.00;98114.00;10526486;28;20059;-70
2023/03/13 22:43:55;;;;;;;0.88;0.70;;;;;;;10.50;100.00;98125.75;10544909;28;20044;-69
2023/03/13 22:48:56;;;;;;;1.00;0.70;;;;;;;10.57;100.00;98116.53;10544403;28;20127;-70
2023/03/13 22:53:58;;;;;;;0.82;0.60;;;;;;;10.59;100.00;98127.81;10544360;28;20040;-70
2023/03/13 22:59:01;;;;;;;0.50;0.50;;;;;;;10.77;100.00;98117.09;10544425;28;20037;-70
2023/03/13 23:04:03;;;;;;;0.70;0.60;;;;;;;10.86;100.00;98121.75;10543944;28;20093;-70
2023/03/13 23:09:06;;;;;;;0.90;0.65;;;;;;;10.75;100.00;98111.06;10542599;28;20040;-70
2023/03/13 23:14:07;;;;;;;1.48;0.70;;;;;;;10.67;100.00;98102.81;10524717;28;20489;-69
2023/03/13 23:19:09;;;;;;;1.05;0.70;;;;;;;10.60;100.00;98095.34;10543940;28;20444;-70
2023/03/13 23:24:11;;;;;;;1.50;1.10;;;;;;;10.42;100.00;98078.09;10542918;28;20044;-71
2023/03/13 23:29:13;;;;;;;1.95;1.10;;;;;;;10.48;100.00;98059.31;10543308;28;20036;-70
2023/03/13 23:34:20;;;;;;;2.38;1.27;;;;;;;10.55;100.00;98008.09;10542308;28;20044;-71
2023/03/13 23:39:22;;;;;;;0.88;0.88;;;;;;;10.68;100.00;97924.06;10525021;28;20058;-71
2023/03/13 23:44:24;;;;;;;1.25;0.70;;;;;;;10.57;100.00;97884.50;10542468;28;20428;-69